Time;durP1;ratioP1;P1;durP2;ratioP2;P2;SDS_P1;SDS_P2;PMS_P1;PMS_P2;Temp;Humidity;BMP_temperature;BMP_pressure;BME280_temperature;BME280_humidity;BME280_pressure;Samples;Min_cycle;Max_cycle;Signal;HPM_P1;HPM_P2
2023/05/04 00:01:10;;;;;;;9.15;4.68;;;7.20;99.90;;;;;;4974592;28;91831;-75
2023/05/04 00:03:37;;;;;;;8.93;5.43;;;7.20;99.90;;;;;;4975391;28;93383;-75
2023/05/04 00:06:04;;;;;;;11.60;5.78;;;7.20;99.90;;;;;;4957492;28;99087;-75
2023/05/04 00:08:31;;;;;;;8.07;5.47;;;7.20;99.90;;;;;;4973082;28;95029;-75
2023/05/04 00:10:58;;;;;;;8.77;6.30;;;7.20;99.90;;;;;;4958258;28;92522;-75
2023/05/04 00:13:25;;;;;;;11.05;5.78;;;7.20;99.90;;;;;;4973723;28;93165;-75
2023/05/04 00:15:52;;;;;;;9.20;5.50;;;7.20;99.90;;;;;;4975000;28;92378;-75
2023/05/04 00:18:19;;;;;;;13.02;6.43;;;7.10;99.90;;;;;;4975436;28;92522;-75
2023/05/04 00:20:46;;;;;;;7.90;5.47;;;7.20;99.90;;;;;;4975302;28;92518;-75
2023/05/04 00:23:13;;;;;;;10.43;5.85;;;7.20;99.90;;;;;;4976361;28;93312;-75
2023/05/04 00:25:40;;;;;;;12.05;5.82;;;7.20;99.90;;;;;;4979072;28;92908;-75
2023/05/04 00:28:07;;;;;;;10.63;6.38;;;7.20;99.90;;;;;;4961088;28;92494;-75
2023/05/04 00:30:34;;;;;;;9.82;5.90;;;7.10;99.90;;;;;;4978541;28;94288;-75
2023/05/04 00:33:01;;;;;;;10.57;6.25;;;7.20;99.90;;;;;;4976081;28;98162;-75
2023/05/04 00:35:30;;;;;;;8.77;5.72;;;7.10;99.90;;;;;;4976768;28;97939;-75
2023/05/04 00:37:57;;;;;;;7.28;5.38;;;7.10;99.90;;;;;;4977297;28;92500;-75
2023/05/04 00:40:24;;;;;;;9.30;6.38;;;7.10;99.90;;;;;;4977100;28;92532;-75
2023/05/04 00:42:51;;;;;;;11.20;6.18;;;7.20;99.90;;;;;;4977225;28;93074;-75
2023/05/04 00:45:18;;;;;;;8.18;6.18;;;7.10;99.90;;;;;;4976977;28;95505;-75
2023/05/04 00:47:45;;;;;;;9.45;5.97;;;7.10;99.90;;;;;;4977092;28;92546;-75
2023/05/04 00:50:13;;;;;;;10.40;6.13;;;7.10;99.90;;;;;;4977403;28;91706;-75
2023/05/04 00:52:42;;;;;;;8.88;6.03;;;7.10;99.90;;;;;;4944451;28;95738;-75
2023/05/04 00:55:10;;;;;;;8.05;6.25;;;7.10;99.90;;;;;;4976886;28;95674;-75
2023/05/04 00:57:38;;;;;;;9.43;6.05;;;7.10;99.90;;;;;;4975754;28;95338;-75
2023/05/04 01:00:07;;;;;;;9.05;5.70;;;7.00;99.90;;;;;;4960665;28;92435;-75
2023/05/04 01:02:34;;;;;;;11.55;6.38;;;7.00;99.90;;;;;;4976549;28;95849;-75
2023/05/04 01:05:01;;;;;;;9.15;5.35;;;7.00;99.90;;;;;;4960792;28;93015;-75
2023/05/04 01:07:31;;;;;;;8.73;6.30;;;7.00;99.90;;;;;;4960368;28;92472;-75
2023/05/04 01:10:20;;;;;;;10.43;6.22;;;7.00;99.90;;;;;;4976880;28;93377;-75
2023/05/04 01:12:54;;;;;;;8.27;6.68;;;7.00;99.90;;;;;;4960164;28;95977;-75
2023/05/04 01:15:22;;;;;;;8.23;5.60;;;7.00;99.90;;;;;;4976398;28;93931;-75
2023/05/04 01:17:49;;;;;;;9.93;6.20;;;7.00;99.90;;;;;;4977007;28;92724;-75
2023/05/04 01:20:16;;;;;;;9.27;5.65;;;7.00;99.90;;;;;;4976982;28;92401;-75
2023/05/04 01:22:43;;;;;;;9.70;6.30;;;7.00;99.90;;;;;;4975058;28;98379;-75
2023/05/04 01:25:10;;;;;;;11.52;6.05;;;7.00;99.90;;;;;;4976513;28;96467;-75
2023/05/04 01:27:43;;;;;;;8.98;6.15;;;7.00;99.90;;;;;;4976244;28;92474;-75
2023/05/04 01:30:19;;;;;;;9.70;6.13;;;7.00;99.90;;;;;;4976672;28;92521;-75
2023/05/04 01:32:48;;;;;;;7.40;5.78;;;7.00;99.90;;;;;;4960297;28;95614;-75
2023/05/04 01:35:15;;;;;;;10.95;7.10;;;6.90;99.90;;;;;;4977505;28;92892;-75
2023/05/04 01:37:44;;;;;;;11.77;6.20;;;6.90;99.90;;;;;;4977724;28;92938;-75
2023/05/04 01:40:11;;;;;;;11.90;7.35;;;6.90;99.90;;;;;;4976756;28;91821;-75
2023/05/04 01:42:38;;;;;;;13.30;6.45;;;6.90;99.90;;;;;;4975931;28;95760;-75
2023/05/04 01:45:06;;;;;;;11.05;6.82;;;6.90;99.90;;;;;;4959963;28;95720;-75
2023/05/04 01:47:33;;;;;;;11.48;6.68;;;6.90;99.90;;;;;;4974723;28;94927;-75
2023/05/04 01:50:00;;;;;;;9.70;6.10;;;6.90;99.90;;;;;;4959928;28;92591;-75
2023/05/04 01:52:27;;;;;;;11.63;6.95;;;6.90;99.90;;;;;;4975692;28;93328;-75
2023/05/04 01:54:54;;;;;;;11.98;6.45;;;6.90;99.90;;;;;;4977504;28;93082;-75
2023/05/04 01:57:21;;;;;;;12.57;6.90;;;6.90;99.90;;;;;;4976234;28;92497;-75
2023/05/04 01:59:48;;;;;;;9.82;6.80;;;6.90;99.90;;;;;;4977178;28;92513;-74
2023/05/04 02:02:15;;;;;;;11.13;7.10;;;6.90;99.90;;;;;;4975875;28;95684;-75
2023/05/04 02:04:42;;;;;;;11.50;6.78;;;6.90;99.90;;;;;;4975990;28;95866;-75
2023/05/04 02:07:09;;;;;;;9.43;7.07;;;6.90;99.90;;;;;;4976046;28;92540;-75
2023/05/04 02:09:36;;;;;;;14.55;6.63;;;6.90;99.90;;;;;;4975758;28;92622;-75
2023/05/04 02:12:03;;;;;;;10.63;6.47;;;7.00;99.90;;;;;;4974442;28;97891;-75
2023/05/04 02:14:30;;;;;;;10.55;6.05;;;6.90;99.90;;;;;;4976591;28;95457;-75
2023/05/04 02:16:57;;;;;;;10.82;6.85;;;7.00;99.90;;;;;;4959799;28;92731;-75
2023/05/04 02:19:24;;;;;;;10.45;6.00;;;6.90;99.90;;;;;;4977053;28;92413;-75
2023/05/04 02:21:51;;;;;;;9.52;6.72;;;6.90;99.90;;;;;;4959273;28;95764;-75
2023/05/04 02:24:20;;;;;;;11.82;6.35;;;6.90;99.90;;;;;;4976885;28;93290;-75
2023/05/04 02:26:47;;;;;;;10.90;6.72;;;7.00;99.90;;;;;;4975280;28;92556;-75
2023/05/04 02:29:14;;;;;;;11.80;7.43;;;7.00;99.90;;;;;;4975713;28;97739;-75
2023/05/04 02:31:41;;;;;;;13.00;6.68;;;7.00;99.90;;;;;;4959251;28;92830;-75
2023/05/04 02:34:08;;;;;;;11.32;6.65;;;7.00;99.90;;;;;;4958967;28;95758;-75
2023/05/04 02:36:45;;;;;;;13.93;7.47;;;7.00;99.90;;;;;;4975773;28;94840;-75
2023/05/04 02:39:12;;;;;;;12.18;6.90;;;7.00;99.90;;;;;;4975636;28;92967;-75
2023/05/04 02:41:39;;;;;;;9.65;6.88;;;7.00;99.90;;;;;;4959139;28;93087;-75
2023/05/04 02:44:06;;;;;;;12.23;6.95;;;7.00;99.90;;;;;;4976570;28;93020;-75
2023/05/04 02:46:33;;;;;;;13.73;7.72;;;7.00;99.90;;;;;;4974111;28;92628;-75
2023/05/04 02:49:00;;;;;;;11.38;6.43;;;7.00;99.90;;;;;;4975164;28;92566;-75
2023/05/04 02:51:27;;;;;;;10.75;6.88;;;7.00;99.90;;;;;;4975187;28;95737;-75
2023/05/04 02:53:54;;;;;;;10.52;7.38;;;7.00;99.90;;;;;;4959008;28;95959;-75
2023/05/04 02:56:23;;;;;;;13.13;7.10;;;7.00;99.90;;;;;;4959019;28;92538;-75
2023/05/04 02:58:50;;;;;;;11.43;7.80;;;6.90;99.90;;;;;;4974878;28;92492;-75
2023/05/04 03:01:17;;;;;;;11.85;6.70;;;6.90;99.90;;;;;;4973639;28;98370;-75
2023/05/04 03:03:44;;;;;;;12.68;7.47;;;6.90;99.90;;;;;;4974642;28;98138;-75
2023/05/04 03:06:11;;;;;;;12.35;7.35;;;7.00;99.90;;;;;;4975205;28;93061;-75
2023/05/04 03:08:38;;;;;;;10.88;6.70;;;6.90;99.90;;;;;;4976350;28;92499;-75
2023/05/04 03:11:05;;;;;;;10.90;7.68;;;6.90;99.90;;;;;;4976334;28;93001;-75
2023/05/04 03:13:33;;;;;;;12.02;7.97;;;6.90;99.90;;;;;;4974809;28;95768;-75
2023/05/04 03:16:01;;;;;;;11.82;7.82;;;6.90;99.90;;;;;;4958594;28;92395;-75
2023/05/04 03:18:28;;;;;;;13.13;7.57;;;6.90;99.90;;;;;;4975195;28;91805;-75
2023/05/04 03:20:55;;;;;;;13.43;8.50;;;6.90;99.90;;;;;;4974644;28;95340;-75
2023/05/04 03:23:22;;;;;;;14.57;7.75;;;6.90;99.90;;;;;;4974660;28;95616;-75
2023/05/04 03:25:50;;;;;;;12.23;7.95;;;6.90;99.90;;;;;;4973478;28;94853;-75
2023/05/04 03:28:16;;;;;;;12.65;8.25;;;6.90;99.90;;;;;;4974357;28;93257;-75
2023/05/04 03:30:43;;;;;;;15.07;8.50;;;6.90;99.90;;;;;;4974591;28;93168;-75
2023/05/04 03:33:10;;;;;;;12.52;8.75;;;6.90;99.90;;;;;;4976032;28;93003;-75
2023/05/04 03:35:37;;;;;;;14.68;7.85;;;6.90;99.90;;;;;;4958411;28;92498;-75
2023/05/04 03:38:08;;;;;;;14.77;8.27;;;6.90;99.90;;;;;;4974548;28;92504;-75
2023/05/04 03:40:35;;;;;;;10.98;7.47;;;6.90;99.90;;;;;;4974751;28;93208;-75
2023/05/04 03:43:02;;;;;;;15.43;7.78;;;6.90;99.90;;;;;;4974664;28;94361;-75
2023/05/04 03:45:30;;;;;;;13.82;8.27;;;6.90;99.90;;;;;;4974615;28;92450;-75
2023/05/04 03:47:57;;;;;;;10.43;7.28;;;6.90;99.90;;;;;;4958063;28;92593;-74
2023/05/04 03:50:25;;;;;;;13.70;8.23;;;6.90;99.90;;;;;;4973201;28;97650;-75
2023/05/04 03:52:52;;;;;;;13.75;8.38;;;6.90;99.90;;;;;;4975573;28;95857;-75
2023/05/04 03:55:21;;;;;;;13.32;8.60;;;6.90;99.90;;;;;;4942582;28;92902;-75
2023/05/04 03:57:49;;;;;;;18.38;9.38;;;7.00;99.90;;;;;;4958034;28;92562;-75
2023/05/04 04:00:17;;;;;;;15.07;8.60;;;7.00;99.90;;;;;;4974208;28;95435;-75
2023/05/04 04:02:51;;;;;;;13.73;7.63;;;6.90;99.90;;;;;;4974009;28;94032;-75
2023/05/04 04:05:19;;;;;;;11.50;7.97;;;7.00;99.90;;;;;;4974383;28;92440;-75
2023/05/04 04:07:49;;;;;;;11.80;7.93;;;7.00;99.90;;;;;;4974127;28;91804;-74
2023/05/04 04:10:15;;;;;;;13.30;8.05;;;7.00;99.90;;;;;;4957950;28;95904;-75
2023/05/04 04:12:42;;;;;;;10.30;7.38;;;7.00;99.90;;;;;;4973931;28;101894;-75
2023/05/04 04:15:10;;;;;;;14.73;8.18;;;7.10;99.90;;;;;;4973969;28;94763;-75
2023/05/04 04:17:37;;;;;;;16.05;8.45;;;7.10;99.90;;;;;;4974231;28;92856;-75
2023/05/04 04:20:04;;;;;;;16.38;8.93;;;7.10;99.90;;;;;;4975412;28;93324;-75
2023/05/04 04:22:31;;;;;;;11.93;7.78;;;7.20;99.90;;;;;;4973970;28;95663;-75
2023/05/04 04:24:58;;;;;;;15.05;7.53;;;7.20;99.90;;;;;;4974566;28;92562;-75
2023/05/04 04:27:25;;;;;;;12.60;7.57;;;7.20;99.90;;;;;;4957549;28;92498;-75
2023/05/04 04:29:52;;;;;;;13.00;8.25;;;7.30;99.90;;;;;;4973783;28;95971;-75
2023/05/04 04:32:20;;;;;;;14.57;8.82;;;7.30;99.90;;;;;;4975523;28;94038;-75
2023/05/04 04:34:47;;;;;;;13.07;8.23;;;7.30;99.90;;;;;;4957505;28;92735;-75
2023/05/04 04:37:14;;;;;;;11.75;7.38;;;7.40;99.90;;;;;;4973892;28;101236;-75
2023/05/04 04:39:41;;;;;;;17.10;8.35;;;7.40;99.90;;;;;;4956339;28;95743;-75
2023/05/04 04:42:08;;;;;;;12.65;7.72;;;7.50;99.90;;;;;;4974979;28;95205;-75
2023/05/04 04:44:35;;;;;;;13.13;8.02;;;7.50;99.90;;;;;;4975408;28;92427;-75
2023/05/04 04:47:02;;;;;;;16.55;8.70;;;7.60;99.90;;;;;;4957385;28;93169;-75
2023/05/04 04:49:29;;;;;;;15.02;8.52;;;7.60;99.90;;;;;;4957470;28;93257;-75
2023/05/04 04:51:56;;;;;;;12.98;7.82;;;7.70;99.90;;;;;;4974961;28;93119;-75
2023/05/04 04:54:23;;;;;;;12.38;8.23;;;7.70;99.90;;;;;;4957489;28;92565;-75
2023/05/04 04:56:50;;;;;;;16.48;8.35;;;7.80;99.90;;;;;;4957552;28;92202;-75
2023/05/04 04:59:17;;;;;;;12.23;8.15;;;7.80;99.90;;;;;;4974961;28;93589;-75
2023/05/04 05:01:44;;;;;;;10.50;7.50;;;7.90;99.90;;;;;;4973718;28;93043;-75
2023/05/04 05:04:11;;;;;;;13.93;7.75;;;7.90;99.90;;;;;;4973533;28;94709;-75
2023/05/04 05:06:38;;;;;;;13.65;7.90;;;7.90;99.90;;;;;;4957653;28;93098;-75
2023/05/04 05:09:05;;;;;;;11.25;7.65;;;8.00;99.90;;;;;;4941798;28;94234;-75
2023/05/04 05:11:32;;;;;;;10.48;7.68;;;8.10;99.90;;;;;;4976718;28;95577;-75
2023/05/04 05:13:59;;;;;;;15.20;8.15;;;8.20;99.90;;;;;;4978225;28;92336;-75
2023/05/04 05:16:26;;;;;;;13.23;7.25;;;8.30;99.90;;;;;;4959957;28;101014;-75
2023/05/04 05:18:53;;;;;;;11.93;7.32;;;8.40;99.90;;;;;;4976660;28;93388;-75
2023/05/04 05:21:20;;;;;;;10.45;7.50;;;8.40;99.90;;;;;;4978255;28;92934;-75
2023/05/04 05:23:47;;;;;;;12.15;7.65;;;8.50;99.90;;;;;;4960342;28;92524;-75
2023/05/04 05:26:14;;;;;;;14.65;7.78;;;8.70;99.90;;;;;;4978003;28;92959;-75
2023/05/04 05:28:41;;;;;;;11.52;6.82;;;8.80;99.90;;;;;;4958965;28;98207;-75
2023/05/04 05:31:08;;;;;;;10.88;7.75;;;9.00;99.90;;;;;;4977428;28;94954;-75
2023/05/04 05:33:35;;;;;;;12.20;6.90;;;9.10;99.90;;;;;;4976617;28;92637;-75
2023/05/04 05:36:02;;;;;;;14.95;8.15;;;9.20;99.90;;;;;;4976448;28;93083;-75
2023/05/04 05:38:29;;;;;;;13.55;8.18;;;9.30;99.90;;;;;;4959886;28;105546;-75
2023/05/04 05:40:56;;;;;;;11.18;7.75;;;9.40;99.90;;;;;;4976105;28;93272;-75
2023/05/04 05:43:23;;;;;;;12.75;7.55;;;9.40;99.90;;;;;;4976494;28;93216;-75
2023/05/04 05:45:50;;;;;;;10.98;7.53;;;9.50;99.90;;;;;;4976881;28;92241;-75
2023/05/04 05:48:17;;;;;;;9.40;6.90;;;9.70;99.90;;;;;;4976869;28;94220;-75
2023/05/04 05:50:44;;;;;;;12.82;6.85;;;9.90;99.90;;;;;;4959795;28;94211;-75
2023/05/04 05:53:11;;;;;;;12.32;7.75;;;10.00;99.90;;;;;;4976243;28;94773;-75
2023/05/04 05:55:38;;;;;;;11.40;7.55;;;10.10;99.90;;;;;;4959931;28;92419;-75
2023/05/04 05:58:05;;;;;;;11.15;7.28;;;10.20;99.90;;;;;;4959393;28;104609;-75
2023/05/04 06:00:31;;;;;;;13.48;7.30;;;10.40;99.90;;;;;;4959861;28;92996;-75
2023/05/04 06:02:58;;;;;;;11.60;7.15;;;10.50;99.90;;;;;;4976121;28;92565;-75
2023/05/04 06:05:25;;;;;;;14.30;7.53;;;10.60;99.90;;;;;;4959917;28;92567;-75
2023/05/04 06:07:52;;;;;;;13.70;7.90;;;10.80;99.90;;;;;;4975931;28;93271;-75
2023/05/04 06:10:19;;;;;;;14.50;7.18;;;11.00;99.90;;;;;;4960131;28;93134;-75
2023/05/04 06:12:46;;;;;;;9.75;6.60;;;11.20;99.90;;;;;;4975681;28;92525;-75
2023/05/04 06:15:13;;;;;;;9.98;6.50;;;11.30;99.90;;;;;;4975040;28;92582;-75
2023/05/04 06:17:41;;;;;;;13.20;6.50;;;11.50;99.90;;;;;;4976026;28;95614;-75
2023/05/04 06:20:08;;;;;;;8.65;6.85;;;11.70;99.90;;;;;;4974464;28;95382;-75
2023/05/04 06:22:35;;;;;;;12.98;7.43;;;11.80;99.90;;;;;;4976858;28;95597;-76
2023/05/04 06:25:02;;;;;;;11.18;6.85;;;11.90;99.90;;;;;;4977204;28;93095;-75
2023/05/04 06:27:33;;;;;;;11.20;7.20;;;12.00;99.90;;;;;;4975404;28;95991;-75
2023/05/04 06:30:00;;;;;;;10.18;7.25;;;12.10;99.90;;;;;;4975732;28;92947;-75
2023/05/04 06:32:27;;;;;;;10.38;7.07;;;12.20;99.90;;;;;;4959219;28;92460;-76
2023/05/04 06:34:54;;;;;;;8.55;6.63;;;12.30;99.90;;;;;;4976191;28;91816;-75
2023/05/04 06:37:22;;;;;;;14.82;6.88;;;12.30;99.90;;;;;;4976687;28;92984;-75
2023/05/04 06:39:49;;;;;;;11.57;6.82;;;12.30;99.90;;;;;;4976501;28;92728;-75
2023/05/04 06:42:16;;;;;;;10.50;7.22;;;12.40;99.90;;;;;;4975562;28;94807;-75
2023/05/04 06:44:42;;;;;;;9.00;7.22;;;12.50;99.90;;;;;;4975357;28;92563;-75
2023/05/04 06:47:11;;;;;;;10.05;7.05;;;12.50;99.90;;;;;;4976442;28;92536;-75
2023/05/04 06:49:38;;;;;;;13.60;6.90;;;12.50;99.90;;;;;;4976492;28;93119;-75
2023/05/04 06:52:05;;;;;;;9.10;6.88;;;12.60;99.90;;;;;;4975286;28;92456;-75
2023/05/04 06:54:31;;;;;;;12.77;7.57;;;12.60;99.90;;;;;;4976624;28;92965;-75
2023/05/04 06:57:00;;;;;;;9.10;6.95;;;12.70;99.80;;;;;;4976418;28;93089;-75
2023/05/04 06:59:27;;;;;;;11.68;7.63;;;13.00;99.80;;;;;;4975387;28;92662;-75
2023/05/04 07:01:54;;;;;;;9.45;7.22;;;13.20;99.60;;;;;;4975329;28;92450;-75
2023/05/04 07:04:22;;;;;;;13.52;7.25;;;13.40;99.30;;;;;;4974996;28;92490;-75
2023/05/04 07:06:49;;;;;;;10.32;6.63;;;13.40;99.20;;;;;;4956674;28;112376;-75
2023/05/04 07:09:21;;;;;;;8.18;6.55;;;13.50;98.90;;;;;;4942103;28;97072;-76
2023/05/04 07:11:48;;;;;;;10.00;7.00;;;13.70;98.60;;;;;;4975462;28;92568;-75
2023/05/04 07:14:15;;;;;;;10.13;6.47;;;13.80;98.50;;;;;;4974683;28;92543;-75
2023/05/04 07:16:42;;;;;;;6.97;6.07;;;13.90;98.30;;;;;;4974527;28;93614;-75
2023/05/04 07:19:09;;;;;;;9.77;6.47;;;14.00;98.00;;;;;;4975155;28;93127;-75
2023/05/04 07:21:36;;;;;;;7.18;6.47;;;14.10;98.00;;;;;;4974569;28;92512;-75
2023/05/04 07:24:05;;;;;;;8.65;6.40;;;14.30;97.80;;;;;;4975350;28;91739;-75
2023/05/04 07:26:32;;;;;;;10.23;6.95;;;14.30;97.60;;;;;;4975691;28;93297;-75
2023/05/04 07:28:59;;;;;;;8.57;6.53;;;14.40;97.70;;;;;;4974458;28;94820;-75
2023/05/04 07:31:26;;;;;;;8.13;6.00;;;14.60;97.40;;;;;;4974546;28;95803;-75
2023/05/04 07:33:56;;;;;;;9.13;6.20;;;14.80;97.10;;;;;;4974951;28;92447;-75
2023/05/04 07:36:25;;;;;;;8.10;6.32;;;15.00;96.70;;;;;;4975508;28;93125;-76
2023/05/04 07:38:52;;;;;;;9.68;6.63;;;15.20;96.30;;;;;;4975704;28;93031;-76
2023/05/04 07:41:19;;;;;;;8.40;5.75;;;15.40;96.60;;;;;;4974469;28;92469;-75
2023/05/04 07:43:46;;;;;;;6.75;6.05;;;15.60;95.90;;;;;;4974592;28;94172;-75
2023/05/04 07:46:13;;;;;;;8.73;5.95;;;16.00;95.80;;;;;;4975688;28;93118;-76
2023/05/04 07:48:40;;;;;;;12.40;5.70;;;16.40;95.10;;;;;;4975813;28;91997;-75
2023/05/04 07:51:12;;;;;;;8.85;5.65;;;16.60;94.60;;;;;;4975883;28;92503;-76
2023/05/04 07:53:40;;;;;;;9.88;5.97;;;17.10;94.50;;;;;;4976095;28;92864;-76
2023/05/04 07:56:11;;;;;;;7.22;5.63;;;17.40;93.40;;;;;;4956662;28;106950;-76
2023/05/04 07:58:38;;;;;;;8.52;6.28;;;17.90;92.70;;;;;;4973807;28;97980;-76
2023/05/04 08:01:05;;;;;;;8.57;6.60;;;18.20;92.00;;;;;;4958028;28;92564;-76
2023/05/04 08:03:32;;;;;;;9.43;5.97;;;18.60;91.70;;;;;;4974112;28;92561;-76
2023/05/04 08:05:59;;;;;;;7.30;6.22;;;18.70;90.90;;;;;;4957935;28;94753;-76
2023/05/04 08:08:26;;;;;;;7.40;6.43;;;18.80;90.30;;;;;;4974111;28;93084;-76
2023/05/04 08:10:53;;;;;;;7.97;6.25;;;18.90;90.00;;;;;;4975683;28;92445;-76
2023/05/04 08:13:23;;;;;;;8.20;6.10;;;19.00;90.10;;;;;;4975786;28;91706;-76
2023/05/04 08:15:50;;;;;;;6.45;5.35;;;19.20;89.50;;;;;;4973666;28;94839;-76
2023/05/04 08:18:17;;;;;;;8.95;6.07;;;19.50;88.00;;;;;;4974386;28;92969;-76
2023/05/04 08:20:44;;;;;;;8.68;6.03;;;19.70;86.60;;;;;;4972973;28;94963;-76
2023/05/04 08:23:11;;;;;;;6.70;5.70;;;20.10;85.80;;;;;;4957849;28;92471;-76
2023/05/04 08:25:38;;;;;;;7.07;6.20;;;20.20;85.10;;;;;;4975226;28;92484;-76
2023/05/04 08:28:05;;;;;;;7.40;5.60;;;20.30;84.30;;;;;;4973865;28;95754;-76
2023/05/04 08:30:32;;;;;;;8.63;6.22;;;20.40;83.20;;;;;;4975305;28;92501;-76
2023/05/04 08:32:59;;;;;;;6.63;5.60;;;20.60;82.70;;;;;;4958017;28;92588;-76
2023/05/04 08:35:26;;;;;;;9.13;5.70;;;20.60;81.90;;;;;;4975152;28;93186;-76
2023/05/04 08:38:06;;;;;;;9.20;6.22;;;20.60;81.20;;;;;;4974269;28;95498;-76
2023/05/04 08:40:33;;;;;;;9.65;6.43;;;21.10;79.90;;;;;;4957752;28;92514;-76
2023/05/04 08:43:02;;;;;;;6.43;5.13;;;21.10;79.60;;;;;;4973413;28;103313;-76
2023/05/04 08:45:29;;;;;;;7.78;5.63;;;21.30;78.50;;;;;;4975293;28;98145;-76
2023/05/04 08:47:56;;;;;;;7.88;5.28;;;21.50;78.50;;;;;;4978487;28;95539;-76
2023/05/04 08:50:23;;;;;;;7.28;5.80;;;21.30;76.60;;;;;;4977191;28;92559;-76
2023/05/04 08:52:51;;;;;;;7.88;6.13;;;21.40;76.50;;;;;;4978709;28;92505;-77
2023/05/04 08:55:18;;;;;;;8.15;6.20;;;21.30;76.40;;;;;;4977010;28;93367;-76
2023/05/04 08:57:46;;;;;;;8.43;6.47;;;21.20;76.70;;;;;;4978019;28;92926;-76
2023/05/04 09:00:32;;;;;;;6.70;5.57;;;21.10;75.80;;;;;;4960669;28;92680;-76
2023/05/04 09:03:02;;;;;;;9.02;5.93;;;21.00;74.70;;;;;;4977696;28;91622;-76
2023/05/04 09:05:30;;;;;;;9.35;5.68;;;20.70;75.70;;;;;;4976530;28;95768;-76
2023/05/04 09:07:57;;;;;;;7.03;5.60;;;20.50;75.90;;;;;;4976710;28;95657;-76
2023/05/04 09:10:24;;;;;;;6.50;5.72;;;20.40;75.90;;;;;;4975648;28;94964;-76
2023/05/04 09:12:54;;;;;;;7.10;5.78;;;20.30;75.30;;;;;;4961078;28;93009;-76
2023/05/04 09:15:22;;;;;;;8.02;5.47;;;20.20;74.60;;;;;;4975960;28;107085;-76
2023/05/04 09:18:02;;;;;;;7.32;5.80;;;19.90;75.20;;;;;;4976809;28;93221;-76
2023/05/04 09:20:29;;;;;;;6.00;5.45;;;19.90;76.00;;;;;;4976421;28;92580;-76
2023/05/04 09:23:02;;;;;;;7.28;5.80;;;19.60;76.20;;;;;;4976708;28;92512;-76
2023/05/04 09:25:29;;;;;;;9.20;5.93;;;19.50;76.00;;;;;;4976566;28;93134;-76
2023/05/04 09:27:56;;;;;;;8.02;5.38;;;19.40;76.40;;;;;;4978257;28;92896;-76
2023/05/04 09:30:22;;;;;;;8.20;6.40;;;19.30;76.80;;;;;;4944144;28;92443;-76
2023/05/04 09:32:49;;;;;;;9.68;5.65;;;19.30;77.50;;;;;;4976110;28;93333;-76
2023/05/04 09:35:17;;;;;;;5.88;5.22;;;19.20;76.70;;;;;;4975005;28;98143;-76
2023/05/04 09:37:58;;;;;;;10.23;6.32;;;19.30;77.10;;;;;;4976822;28;95493;-77
2023/05/04 09:40:35;;;;;;;8.15;5.97;;;19.40;76.60;;;;;;4977741;28;92350;-76
2023/05/04 09:43:02;;;;;;;6.45;5.68;;;19.40;76.80;;;;;;4976838;28;92416;-76
2023/05/04 09:45:43;;;;;;;8.32;6.07;;;19.40;76.60;;;;;;4976391;28;93235;-76
2023/05/04 09:48:20;;;;;;;8.88;5.65;;;19.40;76.30;;;;;;4976355;28;92787;-76
2023/05/04 09:50:54;;;;;;;8.02;6.40;;;19.30;76.80;;;;;;4976337;28;92392;-76
2023/05/04 09:53:25;;;;;;;10.43;6.10;;;19.30;76.80;;;;;;4978154;28;91600;-76
2023/05/04 09:55:58;;;;;;;8.48;5.90;;;19.10;76.50;;;;;;4977262;28;93863;-77
2023/05/04 09:58:48;;;;;;;6.40;5.68;;;19.20;77.10;;;;;;4977544;28;93299;-76
2023/05/04 10:01:15;;;;;;;7.40;6.00;;;19.20;76.60;;;;;;4975198;28;94834;-76
2023/05/04 10:03:43;;;;;;;7.55;5.65;;;19.20;77.20;;;;;;4975816;28;92524;-77
2023/05/04 10:06:10;;;;;;;7.05;5.50;;;19.10;77.30;;;;;;4976703;28;104948;-76
2023/05/04 10:08:40;;;;;;;7.32;5.75;;;19.10;77.10;;;;;;4975565;28;95414;-76
2023/05/04 10:11:07;;;;;;;7.72;6.18;;;19.10;77.50;;;;;;4977427;28;92796;-76
2023/05/04 10:13:34;;;;;;;8.13;6.38;;;19.20;77.90;;;;;;4959860;28;92479;-76
2023/05/04 10:16:45;;;;;;;8.07;6.05;;;19.30;78.10;;;;;;4975644;28;93273;-76
2023/05/04 10:19:25;;;;;;;9.30;6.22;;;19.50;78.20;;;;;;4971294;28;92748;-76
2023/05/04 10:22:00;;;;;;;9.52;5.95;;;19.60;77.70;;;;;;4977036;28;93254;-76
2023/05/04 10:24:45;;;;;;;9.82;6.20;;;19.60;77.60;;;;;;4977329;28;92490;-76
2023/05/04 10:27:16;;;;;;;8.52;6.13;;;19.60;77.50;;;;;;4974440;28;98344;-76
2023/05/04 10:29:48;;;;;;;8.45;6.18;;;19.80;77.40;;;;;;4976690;28;95381;-76
2023/05/04 10:32:22;;;;;;;9.50;5.68;;;19.80;76.50;;;;;;4975681;28;92472;-76
2023/05/04 10:34:50;;;;;;;8.73;6.35;;;19.90;76.50;;;;;;4959311;28;92868;-76
2023/05/04 10:37:19;;;;;;;8.35;5.65;;;20.00;76.60;;;;;;4975579;28;92971;-76
2023/05/04 10:39:53;;;;;;;9.23;6.38;;;20.10;76.20;;;;;;4974642;28;107161;-76
2023/05/04 10:42:20;;;;;;;8.93;6.03;;;20.20;76.40;;;;;;4976835;28;92436;-76
2023/05/04 10:44:55;;;;;;;7.90;5.95;;;20.10;76.80;;;;;;4976929;28;97292;-76
2023/05/04 10:47:33;;;;;;;8.32;6.28;;;20.20;76.10;;;;;;4976651;28;93360;-76
2023/05/04 10:50:04;;;;;;;6.72;5.15;;;20.30;75.60;;;;;;4958833;28;93084;-76
2023/05/04 10:52:44;;;;;;;7.18;5.32;;;20.30;75.50;;;;;;4974083;28;94937;-76
2023/05/04 10:55:11;;;;;;;6.93;5.63;;;20.30;75.10;;;;;;4975297;28;92557;-76
2023/05/04 10:57:55;;;;;;;6.75;5.70;;;20.20;74.80;;;;;;4974961;28;102134;-76
2023/05/04 11:00:34;;;;;;;6.65;5.82;;;20.30;74.70;;;;;;4959027;28;92939;-76
2023/05/04 11:03:03;;;;;;;9.23;4.95;;;20.20;74.10;;;;;;4958667;28;92491;-76
2023/05/04 11:05:40;;;;;;;7.25;5.78;;;20.20;74.20;;;;;;4975000;28;92562;-76
2023/05/04 11:08:18;;;;;;;6.53;5.25;;;20.30;74.40;;;;;;4975478;28;93092;-76
2023/05/04 11:10:46;;;;;;;8.13;5.07;;;20.20;73.80;;;;;;4974767;28;94000;-76
2023/05/04 11:13:15;;;;;;;6.00;5.20;;;20.20;73.70;;;;;;4975055;28;92444;-76
2023/05/04 11:15:46;;;;;;;8.15;5.85;;;20.20;73.20;;;;;;4974824;28;93012;-76
2023/05/04 11:18:14;;;;;;;6.93;5.30;;;20.20;73.80;;;;;;4975038;28;95569;-76
2023/05/04 11:20:43;;;;;;;10.02;5.55;;;20.10;73.70;;;;;;4975568;28;109114;-76
2023/05/04 11:23:15;;;;;;;5.85;4.75;;;20.10;73.80;;;;;;4975939;28;92533;-76
2023/05/04 11:25:42;;;;;;;7.35;4.68;;;20.10;72.20;;;;;;4974911;28;92479;-76
2023/05/04 11:28:08;;;;;;;7.13;4.82;;;20.00;71.50;;;;;;4974203;28;94523;-76
2023/05/04 11:30:36;;;;;;;6.97;4.40;;;20.00;71.10;;;;;;4974357;28;94110;-76
2023/05/04 11:33:13;;;;;;;6.63;4.55;;;20.00;70.30;;;;;;4958627;28;92455;-76
2023/05/04 11:35:42;;;;;;;7.28;4.63;;;20.20;70.20;;;;;;4974972;28;91717;-76
2023/05/04 11:38:09;;;;;;;5.53;4.50;;;20.10;70.40;;;;;;4975620;28;93420;-76
2023/05/04 11:40:39;;;;;;;8.13;3.85;;;20.10;70.90;;;;;;4974515;28;95517;-76
2023/05/04 11:43:10;;;;;;;7.20;4.43;;;20.10;70.00;;;;;;4974669;28;94870;-76
2023/05/04 11:45:39;;;;;;;6.68;3.85;;;20.20;69.40;;;;;;4975938;28;92452;-76
2023/05/04 11:48:07;;;;;;;4.43;3.95;;;20.20;68.60;;;;;;4975524;28;93124;-76
2023/05/04 11:50:35;;;;;;;6.13;4.20;;;20.30;68.70;;;;;;4974494;28;92895;-76
2023/05/04 11:53:10;;;;;;;5.85;4.18;;;20.40;69.10;;;;;;4974649;28;92543;-76
2023/05/04 11:55:38;;;;;;;5.47;4.25;;;20.50;68.90;;;;;;4974483;28;92508;-76
2023/05/04 11:58:09;;;;;;;9.15;4.50;;;20.50;69.30;;;;;;4957803;28;95716;-76
2023/05/04 12:00:38;;;;;;;4.85;4.22;;;20.60;68.80;;;;;;4975905;28;92786;-76
2023/05/04 12:03:06;;;;;;;6.25;4.03;;;20.60;69.50;;;;;;4977588;28;94626;-76
2023/05/04 12:05:35;;;;;;;8.65;4.28;;;20.60;69.00;;;;;;4985857;28;92560;-76
2023/05/04 12:08:03;;;;;;;5.40;4.18;;;20.60;69.30;;;;;;4992589;28;98427;-76
2023/05/04 12:10:34;;;;;;;5.78;3.47;;;20.60;69.20;;;;;;4993713;28;97775;-75
2023/05/04 12:13:01;;;;;;;6.50;3.92;;;20.50;68.80;;;;;;4995434;28;92480;-76
2023/05/04 12:15:33;;;;;;;6.53;4.18;;;20.60;68.40;;;;;;4977049;28;92569;-76
2023/05/04 12:18:01;;;;;;;5.55;3.80;;;20.60;68.30;;;;;;4977183;28;95774;-76
2023/05/04 12:20:29;;;;;;;5.32;3.80;;;20.70;68.60;;;;;;4998446;28;92995;-76
2023/05/04 12:22:57;;;;;;;4.90;4.05;;;20.80;67.70;;;;;;4998539;28;92373;-76
2023/05/04 12:25:24;;;;;;;5.05;3.70;;;20.80;67.60;;;;;;4997821;28;91799;-76
2023/05/04 12:27:51;;;;;;;5.05;3.70;;;20.80;67.80;;;;;;4980804;28;95866;-76
2023/05/04 12:30:18;;;;;;;4.63;4.22;;;20.80;67.30;;;;;;4997220;28;92918;-76
2023/05/04 12:32:45;;;;;;;4.95;4.40;;;20.90;67.40;;;;;;4997947;28;95116;-76
2023/05/04 12:35:12;;;;;;;7.75;4.53;;;20.90;67.50;;;;;;4997055;28;95598;-76
2023/05/04 12:37:39;;;;;;;8.32;4.85;;;20.90;67.40;;;;;;4998645;28;93354;-76
2023/05/04 12:40:07;;;;;;;4.40;3.78;;;21.00;67.60;;;;;;4998244;28;93081;-76
2023/05/04 12:42:47;;;;;;;5.85;3.95;;;21.20;67.90;;;;;;4998838;28;92931;-76
2023/05/04 12:45:15;;;;;;;5.47;3.97;;;21.20;67.10;;;;;;4998295;28;92511;-76
2023/05/04 12:47:42;;;;;;;5.85;3.75;;;21.20;66.80;;;;;;4996844;28;95711;-76
2023/05/04 12:50:09;;;;;;;5.03;3.25;;;21.20;66.40;;;;;;4998255;28;92878;-76
2023/05/04 12:52:36;;;;;;;7.15;4.25;;;21.30;66.40;;;;;;4980468;28;92467;-76